Time;durP1;ratioP1;P1;durP2;ratioP2;P2;SDS_P1;SDS_P2;PMS_P1;PMS_P2;Temp;Humidity;BMP_temperature;BMP_pressure;BME280_temperature;BME280_humidity;BME280_pressure;Samples;Min_cycle;Max_cycle;Signal;HPM_P1;HPM_P2
2021/05/07 00:01:10;;;;;;;1.33;0.63;;;12.80;99.90;;;;;;5066478;28;20024;-58
2021/05/07 00:03:37;;;;;;;0.82;0.60;;;12.70;99.90;;;;;;5064352;28;20079;-58
2021/05/07 00:06:04;;;;;;;1.70;1.00;;;12.60;99.90;;;;;;5058517;28;20032;-58
2021/05/07 00:08:33;;;;;;;1.80;0.70;;;12.60;99.90;;;;;;5065596;28;20024;-58
2021/05/07 00:11:01;;;;;;;0.98;0.75;;;12.50;99.90;;;;;;5065752;28;20048;-58
2021/05/07 00:13:28;;;;;;;1.40;1.17;;;12.40;99.90;;;;;;5066265;28;20044;-58
2021/05/07 00:15:54;;;;;;;1.05;0.60;;;12.40;99.90;;;;;;5066431;28;20145;-57
2021/05/07 00:18:20;;;;;;;0.82;0.70;;;12.40;99.90;;;;;;5065712;28;20492;-58
2021/05/07 00:20:46;;;;;;;1.38;0.98;;;12.30;99.90;;;;;;5066285;28;20040;-58
2021/05/07 00:23:11;;;;;;;1.02;0.63;;;12.30;99.90;;;;;;5066272;28;20725;-58
2021/05/07 00:25:37;;;;;;;0.70;0.60;;;12.20;99.90;;;;;;5066566;28;20060;-58
2021/05/07 00:28:07;;;;;;;1.27;0.90;;;12.20;99.90;;;;;;5066343;28;20024;-58
2021/05/07 00:30:34;;;;;;;2.42;0.57;;;12.20;99.90;;;;;;5065578;28;20471;-58
2021/05/07 00:33:00;;;;;;;1.27;0.70;;;12.10;99.90;;;;;;5066016;28;20021;-58
2021/05/07 00:35:26;;;;;;;0.75;0.60;;;12.10;99.90;;;;;;5066054;28;20479;-58
2021/05/07 00:37:52;;;;;;;0.70;0.50;;;12.10;99.90;;;;;;5066005;28;20481;-58
2021/05/07 00:40:19;;;;;;;0.60;0.57;;;12.20;99.90;;;;;;5066153;28;20032;-58
2021/05/07 00:42:45;;;;;;;0.68;0.50;;;12.20;99.90;;;;;;5065930;28;20036;-58
2021/05/07 00:45:12;;;;;;;1.13;0.68;;;12.10;99.90;;;;;;5066611;28;20024;-58
2021/05/07 00:47:51;;;;;;;0.80;0.60;;;11.90;99.90;;;;;;5066131;28;20152;-58
2021/05/07 00:50:17;;;;;;;0.40;0.40;;;11.80;99.90;;;;;;5068968;28;20107;-58
2021/05/07 00:52:43;;;;;;;0.70;0.60;;;11.80;99.90;;;;;;5069364;28;20044;-58
2021/05/07 00:55:10;;;;;;;1.08;0.82;;;11.80;99.90;;;;;;5069510;28;20024;-58
2021/05/07 00:57:38;;;;;;;0.52;0.52;;;11.80;99.90;;;;;;5069926;28;20024;-58
2021/05/07 01:00:05;;;;;;;1.00;0.60;;;11.90;99.90;;;;;;5068779;28;20028;-58
2021/05/07 01:02:31;;;;;;;0.65;0.60;;;11.90;99.90;;;;;;5069130;28;20140;-57
2021/05/07 01:04:57;;;;;;;2.30;0.60;;;11.90;99.90;;;;;;5069416;28;20578;-57
2021/05/07 01:07:22;;;;;;;0.50;0.50;;;11.80;99.90;;;;;;5068793;28;20073;-57
2021/05/07 01:09:51;;;;;;;1.30;0.50;;;11.80;99.90;;;;;;5068641;28;20119;-57
2021/05/07 01:12:17;;;;;;;0.38;0.30;;;11.80;99.90;;;;;;5069205;28;20066;-58
2021/05/07 01:15:05;;;;;;;2.42;0.60;;;11.80;99.90;;;;;;5068789;28;20105;-57
2021/05/07 01:17:31;;;;;;;0.60;0.60;;;11.70;99.90;;;;;;5069094;28;20639;-57
2021/05/07 01:20:15;;;;;;;0.50;0.50;;;11.70;99.90;;;;;;5069041;28;20025;-57
2021/05/07 01:22:47;;;;;;;1.55;0.40;;;11.70;99.90;;;;;;5069048;28;20017;-57
2021/05/07 01:25:24;;;;;;;0.40;0.40;;;11.70;99.90;;;;;;5069126;28;20364;-57
2021/05/07 01:27:53;;;;;;;0.90;0.43;;;11.80;99.90;;;;;;5068991;28;20032;-57
2021/05/07 01:30:22;;;;;;;0.45;0.40;;;11.70;99.90;;;;;;5068639;28;20608;-57
2021/05/07 01:32:48;;;;;;;0.30;0.30;;;11.80;99.90;;;;;;5068972;28;20020;-57
2021/05/07 01:35:17;;;;;;;0.40;0.40;;;11.80;99.90;;;;;;5068844;28;20107;-57
2021/05/07 01:37:49;;;;;;;0.30;0.30;;;11.70;99.90;;;;;;5068480;28;20438;-57
2021/05/07 01:40:22;;;;;;;0.50;0.30;;;11.80;99.90;;;;;;5068818;28;20028;-57
2021/05/07 01:42:50;;;;;;;0.32;0.32;;;11.90;99.90;;;;;;5068651;28;20661;-57
2021/05/07 01:45:17;;;;;;;0.30;0.30;;;11.90;99.90;;;;;;5068577;28;20037;-57
2021/05/07 01:47:44;;;;;;;0.25;0.25;;;11.90;99.90;;;;;;5068343;28;20056;-57
2021/05/07 01:50:13;;;;;;;0.50;0.30;;;12.00;99.90;;;;;;5069023;28;20097;-57
2021/05/07 01:52:39;;;;;;;0.55;0.45;;;12.00;99.90;;;;;;5068862;28;20540;-57
2021/05/07 01:55:07;;;;;;;0.30;0.30;;;11.90;99.90;;;;;;5068621;28;20035;-57
2021/05/07 01:57:35;;;;;;;0.35;0.30;;;12.00;99.90;;;;;;5068098;28;20526;-57
2021/05/07 02:00:01;;;;;;;0.30;0.30;;;11.80;99.90;;;;;;5067415;28;20048;-57
2021/05/07 02:02:26;;;;;;;0.30;0.30;;;11.80;99.90;;;;;;5067658;28;20029;-57
2021/05/07 02:04:53;;;;;;;0.30;0.30;;;11.80;99.90;;;;;;5068088;28;20692;-57
2021/05/07 02:07:19;;;;;;;0.47;0.40;;;11.80;99.90;;;;;;5068271;28;20063;-57
2021/05/07 02:09:45;;;;;;;0.32;0.30;;;11.70;99.90;;;;;;5067672;28;20067;-57
2021/05/07 02:12:11;;;;;;;0.47;0.45;;;11.70;99.90;;;;;;5068313;28;20021;-57
2021/05/07 02:14:37;;;;;;;0.45;0.30;;;11.70;99.90;;;;;;5068534;28;20413;-57
2021/05/07 02:17:04;;;;;;;0.60;0.35;;;11.70;99.90;;;;;;5068126;28;20078;-57
2021/05/07 02:19:30;;;;;;;0.40;0.38;;;11.70;99.90;;;;;;5067070;28;20043;-57
2021/05/07 02:21:55;;;;;;;0.65;0.60;;;11.60;99.90;;;;;;5067859;28;20020;-57
2021/05/07 02:24:21;;;;;;;0.63;0.32;;;11.60;99.90;;;;;;5067979;28;20035;-57
2021/05/07 02:26:47;;;;;;;0.20;0.20;;;11.60;99.90;;;;;;5067871;28;20029;-57
2021/05/07 02:29:12;;;;;;;0.50;0.50;;;11.60;99.90;;;;;;5067625;28;20029;-57
2021/05/07 02:31:38;;;;;;;0.75;0.40;;;11.60;99.90;;;;;;5068308;28;20029;-57
2021/05/07 02:34:04;;;;;;;0.35;0.35;;;11.60;99.90;;;;;;5067794;28;20079;-57
2021/05/07 02:36:30;;;;;;;0.80;0.70;;;11.60;99.90;;;;;;5067321;28;20046;-57
2021/05/07 02:38:56;;;;;;;0.30;0.30;;;11.60;99.90;;;;;;5067633;28;20055;-57
2021/05/07 02:41:21;;;;;;;0.40;0.40;;;11.70;99.90;;;;;;5067425;28;20078;-57
2021/05/07 02:43:47;;;;;;;0.73;0.40;;;11.70;99.90;;;;;;5067580;28;20024;-57
2021/05/07 02:46:15;;;;;;;0.30;0.30;;;11.60;99.90;;;;;;5067879;28;20024;-57
2021/05/07 02:48:40;;;;;;;0.38;0.20;;;11.70;99.90;;;;;;5067554;28;20020;-57
2021/05/07 02:51:06;;;;;;;0.20;0.20;;;11.80;99.90;;;;;;5067719;28;20025;-57
2021/05/07 02:53:32;;;;;;;0.30;0.30;;;11.80;99.90;;;;;;5067075;28;20039;-57
2021/05/07 02:55:57;;;;;;;0.20;0.20;;;11.90;99.90;;;;;;5066999;28;20423;-57
2021/05/07 02:58:23;;;;;;;0.20;0.20;;;12.10;99.90;;;;;;5066972;28;20058;-57
2021/05/07 03:00:49;;;;;;;0.65;0.22;;;12.20;99.90;;;;;;5067337;28;20024;-57
2021/05/07 03:03:14;;;;;;;0.20;0.20;;;12.10;99.90;;;;;;5067150;28;20516;-57
2021/05/07 03:05:40;;;;;;;0.30;0.30;;;12.10;99.90;;;;;;5067269;28;20107;-57
2021/05/07 03:08:06;;;;;;;0.30;0.30;;;12.10;99.90;;;;;;5067475;28;20524;-57
2021/05/07 03:10:32;;;;;;;0.68;0.30;;;12.20;99.90;;;;;;5066466;28;20487;-57
2021/05/07 03:12:57;;;;;;;0.52;0.30;;;12.10;99.90;;;;;;5066596;28;20039;-57
2021/05/07 03:15:23;;;;;;;0.57;0.43;;;12.20;99.90;;;;;;5066643;28;20021;-57
2021/05/07 03:17:50;;;;;;;0.20;0.20;;;12.00;99.90;;;;;;5066896;28;20421;-57
2021/05/07 03:20:15;;;;;;;0.70;0.30;;;11.90;99.90;;;;;;5066876;28;20078;-57
2021/05/07 03:22:41;;;;;;;0.17;0.17;;;12.10;99.90;;;;;;5066391;28;20028;-57
2021/05/07 03:25:07;;;;;;;0.30;0.30;;;12.10;99.90;;;;;;5067425;28;20104;-57
2021/05/07 03:27:33;;;;;;;0.20;0.20;;;12.20;99.90;;;;;;5066293;28;20035;-57
2021/05/07 03:29:58;;;;;;;0.30;0.30;;;12.30;99.90;;;;;;5066632;28;20036;-57
2021/05/07 03:32:24;;;;;;;0.63;0.40;;;12.30;99.90;;;;;;5066426;28;20609;-57
2021/05/07 03:34:50;;;;;;;0.30;0.30;;;12.30;99.90;;;;;;5066623;28;20538;-57
2021/05/07 03:37:16;;;;;;;0.30;0.28;;;12.30;99.90;;;;;;5066846;28;20494;-57
2021/05/07 03:39:43;;;;;;;0.30;0.30;;;12.30;99.90;;;;;;5066528;28;20596;-57
2021/05/07 03:42:09;;;;;;;0.95;0.35;;;12.40;99.90;;;;;;5066973;28;20070;-57
2021/05/07 03:44:35;;;;;;;0.25;0.25;;;12.30;99.90;;;;;;5066236;28;20020;-57
2021/05/07 03:47:01;;;;;;;0.55;0.38;;;12.40;99.90;;;;;;5066830;28;20452;-57
2021/05/07 03:49:28;;;;;;;0.63;0.47;;;12.40;99.90;;;;;;5066337;28;20036;-57
2021/05/07 03:51:54;;;;;;;0.73;0.50;;;12.40;99.90;;;;;;5066515;28;20099;-57
2021/05/07 03:54:20;;;;;;;0.30;0.30;;;12.40;99.90;;;;;;5066300;28;20107;-57
2021/05/07 03:56:46;;;;;;;0.70;0.40;;;12.20;99.90;;;;;;5066188;28;20678;-57
2021/05/07 03:59:11;;;;;;;0.90;0.47;;;12.00;99.90;;;;;;5066149;28;20050;-57
2021/05/07 04:01:37;;;;;;;0.63;0.40;;;12.10;99.90;;;;;;5065631;28;20032;-57
2021/05/07 04:04:06;;;;;;;0.65;0.40;;;12.10;99.90;;;;;;5065811;28;20028;-57
2021/05/07 04:06:32;;;;;;;1.38;0.70;;;12.30;99.90;;;;;;5065809;28;20032;-57
2021/05/07 04:09:06;;;;;;;0.47;0.47;;;12.20;99.90;;;;;;5065734;28;20029;-57
2021/05/07 04:11:37;;;;;;;0.90;0.60;;;12.20;99.90;;;;;;5065407;28;20463;-57
2021/05/07 04:14:03;;;;;;;0.80;0.63;;;12.30;99.90;;;;;;5065204;28;20048;-57
2021/05/07 04:16:29;;;;;;;0.82;0.55;;;12.50;99.90;;;;;;5065914;28;20056;-57
2021/05/07 04:18:55;;;;;;;1.75;0.77;;;12.50;99.90;;;;;;5065933;28;20036;-57
2021/05/07 04:21:22;;;;;;;1.20;0.32;;;12.50;99.90;;;;;;5065402;28;20025;-57
2021/05/07 04:23:48;;;;;;;0.90;0.50;;;12.30;99.90;;;;;;5067060;28;20556;-56
2021/05/07 04:26:14;;;;;;;0.60;0.50;;;12.30;99.90;;;;;;5070138;28;20111;-57
2021/05/07 04:28:40;;;;;;;0.50;0.47;;;12.30;99.90;;;;;;5070578;28;20048;-56
2021/05/07 04:31:06;;;;;;;0.50;0.50;;;12.40;99.90;;;;;;5070894;28;20040;-57
2021/05/07 04:33:32;;;;;;;0.63;0.50;;;12.50;99.90;;;;;;5069563;28;20016;-57
2021/05/07 04:35:57;;;;;;;0.38;0.38;;;12.50;99.90;;;;;;5069977;28;20383;-57
2021/05/07 04:38:23;;;;;;;0.80;0.60;;;12.50;99.90;;;;;;5069468;28;20494;-57
2021/05/07 04:40:49;;;;;;;0.50;0.50;;;12.30;99.90;;;;;;5069830;28;20494;-57
2021/05/07 04:43:14;;;;;;;0.57;0.50;;;12.30;99.90;;;;;;5070146;28;20036;-57
2021/05/07 04:45:40;;;;;;;0.50;0.50;;;12.30;99.90;;;;;;5070294;28;20102;-57
2021/05/07 04:48:14;;;;;;;1.50;0.50;;;12.30;99.90;;;;;;5070456;28;20037;-57
2021/05/07 04:50:40;;;;;;;0.70;0.70;;;12.10;99.90;;;;;;5069790;28;20908;-57
2021/05/07 04:53:06;;;;;;;1.48;0.77;;;12.10;99.90;;;;;;5070114;28;20342;-57
2021/05/07 04:55:32;;;;;;;1.67;1.35;;;12.10;99.90;;;;;;5069613;28;20131;-57
2021/05/07 04:57:58;;;;;;;1.90;1.45;;;11.90;99.90;;;;;;5069498;28;20055;-57
2021/05/07 05:00:24;;;;;;;2.22;1.40;;;11.70;99.90;;;;;;5069173;28;20012;-57
2021/05/07 05:02:49;;;;;;;1.60;1.15;;;11.80;99.90;;;;;;5068900;28;20075;-57
2021/05/07 05:05:17;;;;;;;1.77;1.30;;;11.90;99.90;;;;;;5069204;28;20082;-57
2021/05/07 05:07:53;;;;;;;1.73;1.00;;;12.40;99.90;;;;;;5069492;28;20562;-57
2021/05/07 05:10:20;;;;;;;1.25;0.95;;;12.70;99.90;;;;;;5068639;28;20032;-57
2021/05/07 05:12:45;;;;;;;1.95;1.20;;;12.80;99.90;;;;;;5069329;28;20024;-57
2021/05/07 05:15:12;;;;;;;4.28;1.40;;;12.90;99.90;;;;;;5068985;28;20517;-57
2021/05/07 05:17:38;;;;;;;1.52;1.13;;;12.80;99.90;;;;;;5069558;28;20024;-57
2021/05/07 05:20:05;;;;;;;1.83;1.02;;;12.80;99.90;;;;;;5069236;28;20027;-58
2021/05/07 05:22:30;;;;;;;1.13;0.93;;;12.80;99.90;;;;;;5068926;28;20036;-58
2021/05/07 05:24:57;;;;;;;1.13;0.93;;;12.70;99.90;;;;;;5068987;28;20027;-58
2021/05/07 05:27:23;;;;;;;1.42;0.80;;;12.50;99.90;;;;;;5069095;28;20028;-57
2021/05/07 05:29:49;;;;;;;0.60;0.60;;;12.50;99.90;;;;;;5068843;28;20590;-57
2021/05/07 05:32:15;;;;;;;1.30;0.90;;;12.60;99.90;;;;;;5068993;28;20103;-57
2021/05/07 05:34:41;;;;;;;1.08;0.60;;;12.60;99.90;;;;;;5068624;28;20506;-58
2021/05/07 05:37:06;;;;;;;0.50;0.50;;;12.50;99.90;;;;;;5069519;28;20024;-58
2021/05/07 05:39:32;;;;;;;0.70;0.60;;;12.50;99.90;;;;;;5068505;28;20032;-58
2021/05/07 05:41:58;;;;;;;0.90;0.52;;;12.50;99.90;;;;;;5063289;28;20107;-58
2021/05/07 05:44:24;;;;;;;0.90;0.60;;;12.50;99.90;;;;;;5064508;28;20017;-58
2021/05/07 05:46:49;;;;;;;0.70;0.60;;;12.50;99.90;;;;;;5067536;28;20028;-57
2021/05/07 05:49:15;;;;;;;0.77;0.57;;;12.40;99.90;;;;;;5068563;28;20031;-57
2021/05/07 05:51:41;;;;;;;0.50;0.50;;;12.30;99.90;;;;;;5068037;28;20051;-58
2021/05/07 05:54:07;;;;;;;0.50;0.50;;;12.20;99.90;;;;;;5069232;28;20521;-58
2021/05/07 05:56:33;;;;;;;0.50;0.50;;;12.20;99.90;;;;;;5068100;28;20029;-57
2021/05/07 05:58:59;;;;;;;1.05;0.70;;;12.30;99.90;;;;;;5067981;28;20044;-57
2021/05/07 06:01:24;;;;;;;0.70;0.70;;;12.10;99.90;;;;;;5067754;28;20024;-58
2021/05/07 06:03:51;;;;;;;0.93;0.60;;;12.30;99.90;;;;;;5063490;28;20020;-57
2021/05/07 06:06:17;;;;;;;0.65;0.50;;;12.50;99.90;;;;;;5067804;28;20028;-56
2021/05/07 06:08:43;;;;;;;1.38;0.70;;;12.60;99.90;;;;;;5067280;28;20032;-57
2021/05/07 06:11:09;;;;;;;1.45;0.90;;;12.60;99.90;;;;;;5068192;28;20044;-57
2021/05/07 06:13:35;;;;;;;0.60;0.55;;;12.60;99.90;;;;;;5067886;28;20062;-57
2021/05/07 06:16:01;;;;;;;1.77;0.73;;;12.70;99.90;;;;;;5068055;28;20106;-57
2021/05/07 06:18:27;;;;;;;0.88;0.63;;;12.60;99.90;;;;;;5066673;28;20714;-57
2021/05/07 06:20:52;;;;;;;0.73;0.60;;;12.70;99.90;;;;;;5067620;28;20071;-57
2021/05/07 06:23:18;;;;;;;0.85;0.60;;;12.70;99.90;;;;;;5072066;28;20210;-57
2021/05/07 06:25:44;;;;;;;0.73;0.55;;;12.70;99.90;;;;;;5067601;28;20170;-57
2021/05/07 06:28:09;;;;;;;0.50;0.50;;;12.70;99.90;;;;;;5068607;28;20140;-57
2021/05/07 06:30:36;;;;;;;0.68;0.63;;;12.70;99.90;;;;;;5065808;28;20052;-58
2021/05/07 06:33:02;;;;;;;2.63;0.77;;;12.70;99.90;;;;;;5066193;28;20028;-58
2021/05/07 06:35:27;;;;;;;0.70;0.50;;;12.60;99.90;;;;;;5065930;28;20082;-58
2021/05/07 06:37:56;;;;;;;1.52;0.70;;;12.60;99.90;;;;;;5066397;28;20450;-57
2021/05/07 06:40:22;;;;;;;2.13;0.50;;;12.60;99.90;;;;;;5065782;28;20081;-57
2021/05/07 06:42:49;;;;;;;0.68;0.63;;;12.70;99.90;;;;;;5066311;28;20233;-57
2021/05/07 06:45:16;;;;;;;0.93;0.57;;;12.60;99.90;;;;;;5066084;28;20028;-58
2021/05/07 06:47:41;;;;;;;0.63;0.57;;;12.80;99.90;;;;;;5064586;28;20036;-57
2021/05/07 06:50:09;;;;;;;1.67;0.80;;;12.80;99.90;;;;;;5066569;28;20295;-57
2021/05/07 06:52:36;;;;;;;2.05;0.80;;;12.90;99.90;;;;;;5065939;28;20028;-56
2021/05/07 06:55:03;;;;;;;1.73;1.05;;;12.90;99.90;;;;;;5065955;28;20039;-56
2021/05/07 06:57:29;;;;;;;1.98;0.75;;;12.90;99.90;;;;;;5065219;28;20130;-57
2021/05/07 06:59:54;;;;;;;0.77;0.60;;;13.00;99.90;;;;;;5064116;28;20024;-56
2021/05/07 07:02:20;;;;;;;0.63;0.63;;;13.10;99.90;;;;;;5066749;28;20039;-56
2021/05/07 07:04:46;;;;;;;1.00;0.70;;;13.10;99.90;;;;;;5067112;28;20485;-56
2021/05/07 07:07:13;;;;;;;0.95;0.65;;;12.90;99.90;;;;;;5067244;28;20031;-56
2021/05/07 07:09:38;;;;;;;1.10;0.73;;;13.00;99.90;;;;;;5066314;28;20545;-56
2021/05/07 07:12:05;;;;;;;0.73;0.60;;;13.00;99.90;;;;;;5068003;28;20017;-56
2021/05/07 07:14:30;;;;;;;0.60;0.60;;;13.10;99.90;;;;;;5058393;28;20486;-56
2021/05/07 07:16:56;;;;;;;0.38;0.38;;;13.10;99.90;;;;;;5044836;28;20025;-56
2021/05/07 07:19:21;;;;;;;0.57;0.50;;;13.00;99.90;;;;;;5044195;28;20020;-57
2021/05/07 07:21:47;;;;;;;0.65;0.60;;;13.10;99.90;;;;;;5044845;28;20492;-56
2021/05/07 07:24:14;;;;;;;0.60;0.60;;;13.20;99.90;;;;;;5044801;28;20029;-57
2021/05/07 07:26:39;;;;;;;0.70;0.60;;;13.10;99.90;;;;;;5044935;28;20032;-56
2021/05/07 07:29:06;;;;;;;1.08;0.70;;;13.20;99.90;;;;;;5044699;28;20504;-56
2021/05/07 07:31:32;;;;;;;1.20;0.70;;;13.20;99.90;;;;;;5044125;28;20352;-56
2021/05/07 07:33:59;;;;;;;7.20;4.10;;;13.20;99.90;;;;;;5044552;28;20025;-56
2021/05/07 07:36:26;;;;;;;5.57;3.13;;;13.20;99.90;;;;;;5044576;28;20490;-57
2021/05/07 07:38:51;;;;;;;6.20;3.67;;;13.30;99.90;;;;;;5044482;28;20052;-57
2021/05/07 07:41:17;;;;;;;4.68;3.00;;;13.40;99.90;;;;;;5044511;28;20071;-56
2021/05/07 07:43:44;;;;;;;3.03;2.30;;;13.40;99.90;;;;;;5044284;28;20029;-56
2021/05/07 07:46:09;;;;;;;2.08;1.35;;;13.50;99.90;;;;;;5043166;28;20060;-56
2021/05/07 07:48:35;;;;;;;2.00;1.40;;;13.60;99.90;;;;;;5043860;28;20075;-57
2021/05/07 07:51:01;;;;;;;2.20;1.17;;;13.40;99.90;;;;;;5043930;28;20025;-56
2021/05/07 07:53:27;;;;;;;1.17;1.08;;;13.50;99.90;;;;;;5044117;28;20029;-57
2021/05/07 07:55:53;;;;;;;1.30;0.70;;;13.70;99.90;;;;;;5043896;28;20100;-57
2021/05/07 07:58:19;;;;;;;0.60;0.60;;;13.70;99.90;;;;;;5042830;28;20484;-56
2021/05/07 08:00:47;;;;;;;0.68;0.50;;;13.60;99.90;;;;;;5044106;28;20036;-57
2021/05/07 08:03:14;;;;;;;0.47;0.47;;;13.60;99.90;;;;;;5044061;28;20139;-57
2021/05/07 08:05:40;;;;;;;0.80;0.70;;;13.60;99.90;;;;;;5043699;28;20109;-56
2021/05/07 08:08:06;;;;;;;1.77;0.52;;;13.50;99.90;;;;;;5043720;28;20112;-57
2021/05/07 08:10:31;;;;;;;0.43;0.43;;;13.20;99.90;;;;;;5023042;28;612759;-57
2021/05/07 08:12:58;;;;;;;0.65;0.60;;;13.10;99.90;;;;;;5044814;28;20412;-57
2021/05/07 08:15:26;;;;;;;0.50;0.50;;;12.70;99.90;;;;;;5058692;28;20538;-56
2021/05/07 08:17:54;;;;;;;0.52;0.52;;;12.80;99.90;;;;;;5063459;28;20533;-57
2021/05/07 08:20:21;;;;;;;0.40;0.40;;;12.80;99.90;;;;;;5065134;28;20487;-57
2021/05/07 08:22:47;;;;;;;0.40;0.40;;;12.90;99.90;;;;;;5064706;28;20016;-58
2021/05/07 08:25:13;;;;;;;1.10;0.40;;;12.90;99.90;;;;;;5065041;28;20028;-57
2021/05/07 08:27:40;;;;;;;0.43;0.30;;;13.00;99.90;;;;;;5064390;28;20115;-57
2021/05/07 08:30:08;;;;;;;0.73;0.40;;;12.90;99.90;;;;;;5064744;28;20052;-56
2021/05/07 08:32:35;;;;;;;1.05;0.38;;;13.00;99.90;;;;;;5064616;28;20021;-57
2021/05/07 08:35:01;;;;;;;0.50;0.50;;;13.00;99.90;;;;;;5064360;28;20567;-56
2021/05/07 08:37:27;;;;;;;3.15;1.48;;;13.00;99.90;;;;;;5062919;28;20029;-57
2021/05/07 08:39:55;;;;;;;2.70;1.10;;;13.10;99.90;;;;;;5065158;28;20039;-56
2021/05/07 08:42:21;;;;;;;1.48;0.70;;;13.20;99.90;;;;;;5064866;28;20556;-57
2021/05/07 08:44:51;;;;;;;0.73;0.60;;;13.20;99.90;;;;;;5063286;28;20020;-57
2021/05/07 08:47:19;;;;;;;2.25;0.80;;;13.20;99.90;;;;;;5062759;28;20063;-56
2021/05/07 08:49:49;;;;;;;1.65;0.60;;;13.30;99.90;;;;;;5063698;28;20024;-56
2021/05/07 08:52:18;;;;;;;0.93;0.75;;;13.30;99.90;;;;;;5064653;28;20070;-56
2021/05/07 08:54:45;;;;;;;1.75;0.73;;;13.30;99.90;;;;;;5064033;28;20456;-56
2021/05/07 08:57:12;;;;;;;0.45;0.40;;;13.30;99.90;;;;;;5063415;28;20053;-56
2021/05/07 08:59:38;;;;;;;0.82;0.73;;;13.30;99.90;;;;;;5064004;28;20037;-56
2021/05/07 09:02:05;;;;;;;0.90;0.73;;;13.20;99.90;;;;;;5064192;28;20526;-56
2021/05/07 09:04:31;;;;;;;1.05;0.90;;;13.30;99.90;;;;;;5064143;28;20084;-57
2021/05/07 09:06:57;;;;;;;1.33;0.90;;;13.50;99.90;;;;;;5064295;28;20025;-57
2021/05/07 09:09:30;;;;;;;1.40;0.70;;;13.60;99.90;;;;;;5062246;28;20399;-57
2021/05/07 09:11:57;;;;;;;2.60;0.60;;;13.70;99.90;;;;;;5061373;28;20039;-57
2021/05/07 09:14:24;;;;;;;0.40;0.40;;;13.80;99.90;;;;;;5068236;28;20017;-57
2021/05/07 09:16:58;;;;;;;0.57;0.40;;;13.80;99.90;;;;;;5067885;28;20062;-56
2021/05/07 09:19:26;;;;;;;0.82;0.50;;;13.80;99.90;;;;;;5067466;28;20052;-57
2021/05/07 09:21:54;;;;;;;0.57;0.57;;;13.80;99.90;;;;;;5068320;28;20064;-56
2021/05/07 09:24:36;;;;;;;2.08;1.02;;;13.90;99.90;;;;;;5068025;28;20788;-57
2021/05/07 09:27:02;;;;;;;1.38;0.88;;;13.90;99.90;;;;;;5067656;28;20029;-57
2021/05/07 09:29:32;;;;;;;1.40;0.90;;;13.80;99.90;;;;;;5066903;28;20105;-56
2021/05/07 09:32:03;;;;;;;2.13;1.45;;;13.90;99.90;;;;;;5067372;28;20502;-56
2021/05/07 09:34:35;;;;;;;3.08;1.10;;;13.90;99.90;;;;;;5066491;28;20044;-56
2021/05/07 09:37:12;;;;;;;0.88;0.70;;;14.20;99.90;;;;;;5062693;28;20553;-49
2021/05/07 09:39:38;;;;;;;1.67;0.73;;;14.30;99.90;;;;;;5047975;28;20104;-48
2021/05/07 09:42:04;;;;;;;0.50;0.40;;;14.20;99.90;;;;;;5047150;28;20033;-47
2021/05/07 09:44:35;;;;;;;1.17;0.52;;;14.20;99.90;;;;;;5045566;28;20176;-50
2021/05/07 09:47:13;;;;;;;0.90;0.60;;;14.10;99.90;;;;;;5046348;28;20045;-50
2021/05/07 09:49:39;;;;;;;0.98;0.50;;;14.30;99.90;;;;;;5065033;28;20085;-49
2021/05/07 09:52:05;;;;;;;0.32;0.30;;;14.20;99.90;;;;;;5067116;28;20170;-48
2021/05/07 09:54:32;;;;;;;1.83;0.50;;;14.30;99.90;;;;;;5065541;28;20589;-53
2021/05/07 09:57:01;;;;;;;0.88;0.43;;;14.20;99.90;;;;;;5066488;28;20021;-51
2021/05/07 09:59:29;;;;;;;1.38;0.57;;;14.20;99.90;;;;;;5066581;28;20510;-50
2021/05/07 10:01:54;;;;;;;1.95;0.63;;;14.40;99.90;;;;;;5066193;28;20024;-50
2021/05/07 10:04:20;;;;;;;2.13;0.60;;;14.20;99.90;;;;;;5063512;28;20514;-48
2021/05/07 10:06:46;;;;;;;2.95;0.68;;;14.10;99.90;;;;;;5060424;28;20384;-51
2021/05/07 10:09:21;;;;;;;0.50;0.38;;;14.30;99.90;;;;;;5065515;28;20514;-50
2021/05/07 10:11:50;;;;;;;1.48;0.50;;;14.50;99.90;;;;;;5066548;28;20032;-51
2021/05/07 10:14:18;;;;;;;2.95;0.88;;;14.40;99.90;;;;;;5064928;28;20327;-49
2021/05/07 10:16:43;;;;;;;2.58;0.70;;;14.40;99.90;;;;;;5065741;28;20016;-50
2021/05/07 10:19:12;;;;;;;1.20;0.73;;;14.40;99.90;;;;;;5065901;28;20035;-47
2021/05/07 10:21:46;;;;;;;2.72;1.02;;;14.20;99.90;;;;;;5065369;28;20024;-50
2021/05/07 10:24:13;;;;;;;2.17;0.95;;;14.20;99.90;;;;;;5066174;28;20037;-48
2021/05/07 10:26:40;;;;;;;1.52;0.50;;;14.20;99.90;;;;;;5065602;28;20143;-49
2021/05/07 10:29:34;;;;;;;0.68;0.50;;;14.20;99.90;;;;;;5066357;28;20024;-46
2021/05/07 10:32:02;;;;;;;1.25;0.60;;;14.10;99.90;;;;;;5056667;28;20037;-51
2021/05/07 10:34:28;;;;;;;2.38;0.65;;;14.00;99.90;;;;;;5065053;28;20565;-51
2021/05/07 10:36:59;;;;;;;1.15;0.47;;;14.10;99.90;;;;;;5065588;28;20028;-50
2021/05/07 10:39:29;;;;;;;0.73;0.50;;;14.20;99.90;;;;;;5065391;28;20025;-48
2021/05/07 10:42:02;;;;;;;0.35;0.30;;;14.10;99.90;;;;;;5065419;28;20410;-49
2021/05/07 10:44:40;;;;;;;1.45;0.30;;;14.00;99.90;;;;;;5065723;28;20028;-47
2021/05/07 10:47:07;;;;;;;0.68;0.50;;;14.10;99.90;;;;;;5065979;28;20025;-49
2021/05/07 10:49:34;;;;;;;1.05;0.55;;;14.10;99.90;;;;;;5064990;28;20032;-50
2021/05/07 10:52:00;;;;;;;1.30;0.50;;;14.10;99.90;;;;;;5063963;28;20031;-51
2021/05/07 10:54:41;;;;;;;1.00;0.35;;;14.30;99.90;;;;;;5064068;28;20099;-46
2021/05/07 10:57:27;;;;;;;0.90;0.35;;;14.60;99.90;;;;;;5066366;28;20479;-47
2021/05/07 10:59:56;;;;;;;0.95;0.30;;;14.80;99.90;;;;;;5064818;28;20033;-48
2021/05/07 11:02:23;;;;;;;0.98;0.50;;;15.10;99.90;;;;;;5065236;28;20041;-46
2021/05/07 11:04:51;;;;;;;0.95;0.40;;;15.00;99.90;;;;;;5065172;28;20036;-47
2021/05/07 11:07:30;;;;;;;1.10;0.43;;;15.40;99.90;;;;;;5064766;28;20051;-50
2021/05/07 11:10:14;;;;;;;1.05;0.40;;;15.50;99.90;;;;;;5064026;28;20029;-46
2021/05/07 11:12:43;;;;;;;1.00;0.47;;;15.40;99.90;;;;;;5064752;28;20639;-48
2021/05/07 11:15:18;;;;;;;1.35;0.68;;;15.10;99.90;;;;;;5064779;28;20036;-48
2021/05/07 11:17:45;;;;;;;0.45;0.32;;;15.20;99.90;;;;;;5063049;28;20024;-48
2021/05/07 11:20:11;;;;;;;0.40;0.30;;;15.10;99.90;;;;;;5064522;28;20082;-47
2021/05/07 11:22:39;;;;;;;0.40;0.40;;;15.10;99.90;;;;;;5065565;28;20086;-47
2021/05/07 11:25:07;;;;;;;0.60;0.40;;;15.10;99.90;;;;;;5065297;28;20021;-57
2021/05/07 11:27:33;;;;;;;2.53;0.50;;;15.00;99.90;;;;;;5065000;28;20032;-57
2021/05/07 11:29:58;;;;;;;0.95;0.50;;;15.00;99.90;;;;;;5061913;28;20028;-57
2021/05/07 11:32:25;;;;;;;0.95;0.40;;;15.00;99.90;;;;;;5064603;28;20031;-56
2021/05/07 11:34:53;;;;;;;1.35;0.40;;;15.10;99.90;;;;;;5065166;28;20205;-57
2021/05/07 11:37:20;;;;;;;0.52;0.30;;;15.20;99.90;;;;;;5065130;28;20422;-57
2021/05/07 11:39:57;;;;;;;0.93;0.50;;;15.30;99.90;;;;;;5064710;28;20036;-57
2021/05/07 11:42:36;;;;;;;1.38;0.77;;;15.20;99.90;;;;;;5064788;28;20155;-57
2021/05/07 11:45:16;;;;;;;2.10;0.57;;;14.70;99.90;;;;;;5064652;28;20067;-57
2021/05/07 11:47:42;;;;;;;0.85;0.50;;;14.50;99.90;;;;;;5064699;28;20111;-57
2021/05/07 11:50:11;;;;;;;1.92;0.60;;;14.40;99.90;;;;;;5065544;28;20024;-57
2021/05/07 11:52:45;;;;;;;2.13;0.40;;;14.10;99.90;;;;;;5065403;28;20032;-57
2021/05/07 11:55:27;;;;;;;0.65;0.40;;;14.10;99.90;;;;;;5064932;28;20452;-57
2021/05/07 11:57:56;;;;;;;0.35;0.30;;;14.00;99.90;;;;;;5064844;28;20506;-56
2021/05/07 12:00:22;;;;;;;0.30;0.25;;;14.40;99.90;;;;;;5064372;28;20388;-57
2021/05/07 12:03:08;;;;;;;0.55;0.30;;;14.60;99.90;;;;;;5064824;28;20051;-57
2021/05/07 12:05:36;;;;;;;0.45;0.35;;;14.70;99.90;;;;;;5065086;28;20025;-57
2021/05/07 12:08:02;;;;;;;0.38;0.35;;;14.90;99.90;;;;;;5064461;28;20047;-56
2021/05/07 12:10:29;;;;;;;2.85;0.57;;;15.10;99.90;;;;;;5064389;28;20082;-57
2021/05/07 12:12:57;;;;;;;1.90;0.30;;;15.10;99.90;;;;;;5065018;28;20283;-57
2021/05/07 12:15:41;;;;;;;0.20;0.20;;;15.40;99.90;;;;;;5064271;28;20021;-57
2021/05/07 12:18:23;;;;;;;0.55;0.40;;;15.50;99.90;;;;;;5064856;28;20021;-57
2021/05/07 12:20:56;;;;;;;2.00;0.35;;;15.70;99.90;;;;;;5063887;28;20624;-56
2021/05/07 12:23:26;;;;;;;0.75;0.20;;;16.00;99.90;;;;;;5066101;28;20032;-55
2021/05/07 12:25:52;;;;;;;2.88;0.55;;;16.00;99.90;;;;;;5065886;28;20039;-55
2021/05/07 12:28:19;;;;;;;1.02;0.50;;;15.90;99.90;;;;;;5066104;28;20029;-54
2021/05/07 12:30:47;;;;;;;0.57;0.40;;;16.00;99.90;;;;;;5065374;28;20033;-54
2021/05/07 12:33:20;;;;;;;1.48;0.40;;;16.30;99.90;;;;;;5066147;28;20078;-53
2021/05/07 12:36:00;;;;;;;0.50;0.30;;;16.40;99.90;;;;;;5062247;28;20655;-54
2021/05/07 12:38:30;;;;;;;1.65;0.40;;;16.50;99.90;;;;;;5065797;28;20493;-54
2021/05/07 12:40:59;;;;;;;0.80;0.30;;;16.80;99.90;;;;;;5065957;28;20037;-55
2021/05/07 12:43:25;;;;;;;0.38;0.28;;;17.00;99.90;;;;;;5065451;28;20067;-55
2021/05/07 12:45:52;;;;;;;0.40;0.38;;;16.90;99.90;;;;;;5068005;28;20024;-55
2021/05/07 12:48:18;;;;;;;1.05;0.50;;;17.30;99.90;;;;;;5069420;28;20028;-55
2021/05/07 12:50:46;;;;;;;0.88;0.47;;;17.30;99.90;;;;;;5066773;28;20131;-55